Time;durP1;ratioP1;P1;durP2;ratioP2;P2;SDS_P1;SDS_P2;PMS_P1;PMS_P2;Temp;Humidity;BMP_temperature;BMP_pressure;BME280_temperature;BME280_humidity;BME280_pressure;Samples;Min_cycle;Max_cycle;Signal;HPM_P1;HPM_P2
2023/05/31 00:02:17;;;;;;;1.38;1.08;;;;;;;26.14;35.40;102495.25;5020741;28;96678;-81
2023/05/31 00:04:43;;;;;;;2.55;1.35;;;;;;;26.14;35.43;102498.03;5020318;28;97961;-82
2023/05/31 00:07:10;;;;;;;2.05;1.10;;;;;;;26.12;35.05;102498.19;5020879;28;96793;-81
2023/05/31 00:09:37;;;;;;;1.92;1.25;;;;;;;26.13;35.50;102490.78;5019590;28;96847;-82
2023/05/31 00:12:03;;;;;;;1.27;1.17;;;;;;;26.13;35.49;102493.53;5017985;28;99321;-81
2023/05/31 00:14:30;;;;;;;1.80;1.48;;;;;;;26.13;35.52;102499.06;5018283;28;98963;-81
2023/05/31 00:16:57;;;;;;;1.50;1.20;;;;;;;26.12;35.30;102489.94;5017952;28;96914;-82
2023/05/31 00:19:26;;;;;;;1.30;1.20;;;;;;;26.13;35.61;102493.53;5001392;28;97199;-81
2023/05/31 00:21:53;;;;;;;1.73;1.08;;;;;;;26.12;35.41;102494.56;5018330;28;96729;-81
2023/05/31 00:24:19;;;;;;;1.45;1.02;;;;;;;26.12;35.28;102498.19;5020051;28;96673;-82
2023/05/31 00:26:46;;;;;;;1.75;1.20;;;;;;;26.12;35.55;102500.94;5001652;28;97328;-81
2023/05/31 00:29:12;;;;;;;1.52;1.10;;;;;;;26.11;35.38;102498.34;5007635;28;96763;-81
2023/05/31 00:31:40;;;;;;;1.20;1.10;;;;;;;26.10;35.67;102492.00;5016412;28;98449;-81
2023/05/31 00:34:10;;;;;;;1.35;1.25;;;;;;;26.10;35.47;102499.38;5016034;28;98286;-82
2023/05/31 00:36:36;;;;;;;1.25;1.10;;;;;;;26.10;35.60;102502.16;5016844;28;96952;-82
2023/05/31 00:39:03;;;;;;;1.30;1.20;;;;;;;26.09;35.33;102481.16;5001806;28;96853;-81
2023/05/31 00:41:29;;;;;;;1.25;1.05;;;;;;;26.09;35.37;102489.41;5019029;28;96884;-81
2023/05/31 00:43:56;;;;;;;1.38;1.02;;;;;;;26.09;35.54;102483.91;5018434;28;97670;-81
2023/05/31 00:46:28;;;;;;;1.63;1.20;;;;;;;26.09;35.54;102483.91;5017291;28;96680;-81
2023/05/31 00:48:55;;;;;;;1.50;1.20;;;;;;;26.08;35.57;102495.94;5017572;28;96933;-81
2023/05/31 00:51:24;;;;;;;1.40;1.00;;;;;;;26.07;35.59;102495.09;5017886;28;98095;-81
2023/05/31 00:53:52;;;;;;;1.58;0.90;;;;;;;26.07;35.54;102502.50;5017989;28;97499;-82
2023/05/31 00:56:19;;;;;;;1.30;0.90;;;;;;;26.07;35.47;102497.84;5009848;28;96961;-81
2023/05/31 00:58:46;;;;;;;1.42;1.00;;;;;;;26.07;35.30;102503.34;4992559;28;97531;-81
2023/05/31 01:01:14;;;;;;;1.20;1.00;;;;;;;26.06;35.48;102504.38;5011015;28;97782;-81
2023/05/31 01:03:41;;;;;;;1.30;1.10;;;;;;;26.06;35.41;102504.38;5008811;28;99865;-81
2023/05/31 01:06:08;;;;;;;1.02;0.93;;;;;;;26.05;35.31;102502.66;5000336;28;96892;-81
2023/05/31 01:08:36;;;;;;;1.73;0.95;;;;;;;26.05;35.42;102505.41;5006726;28;97328;-81
2023/05/31 01:11:26;;;;;;;1.52;1.00;;;;;;;26.04;35.66;102503.69;4992392;28;99561;-81
2023/05/31 01:14:04;;;;;;;1.88;1.00;;;;;;;26.05;35.61;102507.31;4995946;28;96855;-81
2023/05/31 01:16:47;;;;;;;1.25;1.00;;;;;;;26.04;35.46;102505.59;5011210;28;99708;-81
2023/05/31 01:19:42;;;;;;;1.15;0.90;;;;;;;26.03;35.68;102501.09;5009927;28;96975;-81
2023/05/31 01:22:42;;;;;;;1.90;1.03;;;;;;;26.01;35.36;102505.88;5009036;28;99540;-81
2023/05/31 01:25:34;;;;;;;1.20;0.90;;;;;;;26.00;35.75;102496.78;5011317;28;97446;-81
2023/05/31 01:28:07;;;;;;;1.10;1.00;;;;;;;25.99;35.55;102503.31;4994079;28;97523;-81
2023/05/31 01:30:37;;;;;;;1.15;0.90;;;;;;;25.98;35.40;102505.19;5011191;28;96963;-82
2023/05/31 01:33:10;;;;;;;1.17;1.00;;;;;;;26.00;35.54;102504.16;5014850;28;96794;-81
2023/05/31 01:35:36;;;;;;;0.90;0.80;;;;;;;26.00;35.79;102498.66;4996175;28;99133;-81
2023/05/31 01:38:04;;;;;;;1.02;0.93;;;;;;;26.00;35.83;102495.91;5007735;28;96792;-81
2023/05/31 01:40:33;;;;;;;1.35;0.93;;;;;;;25.98;35.57;102494.19;5006217;28;96904;-81
2023/05/31 01:43:03;;;;;;;1.08;0.90;;;;;;;26.00;35.46;102495.91;5002310;28;98361;-81
2023/05/31 01:45:30;;;;;;;1.48;1.02;;;;;;;25.99;35.49;102497.81;4997155;28;99491;-81
2023/05/31 01:48:04;;;;;;;1.30;1.00;;;;;;;25.98;35.57;102499.69;5013096;28;96581;-81
2023/05/31 01:50:33;;;;;;;1.33;0.80;;;;;;;25.98;35.51;102505.19;5013813;28;96788;-81
2023/05/31 01:53:00;;;;;;;1.25;0.90;;;;;;;25.98;35.52;102505.19;5010161;28;100453;-81
2023/05/31 01:55:28;;;;;;;1.25;1.02;;;;;;;25.97;35.46;102497.97;5015947;28;98856;-81
2023/05/31 01:57:56;;;;;;;0.90;0.80;;;;;;;25.98;35.61;102494.19;5014334;28;96666;-81
2023/05/31 02:00:24;;;;;;;0.80;0.80;;;;;;;25.97;35.72;102495.22;5013012;28;96895;-81
2023/05/31 02:02:52;;;;;;;1.17;0.90;;;;;;;25.97;35.85;102492.47;5014335;28;97109;-81
2023/05/31 02:05:19;;;;;;;1.65;1.00;;;;;;;25.97;35.68;102491.59;5013732;28;100384;-81
2023/05/31 02:07:47;;;;;;;1.85;1.10;;;;;;;25.96;35.61;102487.13;5013799;28;96713;-81
2023/05/31 02:10:15;;;;;;;1.23;0.90;;;;;;;25.96;35.40;102481.63;5014219;28;97249;-81
2023/05/31 02:12:41;;;;;;;0.93;0.80;;;;;;;25.96;35.40;102476.13;5014589;28;98902;-81
2023/05/31 02:15:10;;;;;;;1.55;0.80;;;;;;;25.95;35.51;102477.16;5014375;28;98428;-81
2023/05/31 02:17:42;;;;;;;0.93;0.77;;;;;;;25.95;35.58;102479.91;5016316;28;96837;-81
2023/05/31 02:20:12;;;;;;;1.30;0.90;;;;;;;25.95;35.52;102482.66;5018859;28;96738;-81
2023/05/31 02:22:44;;;;;;;1.27;0.82;;;;;;;25.95;35.65;102483.50;5017484;28;98914;-81
2023/05/31 02:25:12;;;;;;;1.58;1.00;;;;;;;25.94;35.75;102480.94;5013441;28;97495;-81
2023/05/31 02:27:41;;;;;;;0.70;0.70;;;;;;;25.94;35.67;102476.28;5001860;28;97128;-81
2023/05/31 02:30:08;;;;;;;0.80;0.80;;;;;;;25.93;35.51;102477.31;5019527;28;96987;-81
2023/05/31 02:32:37;;;;;;;0.93;0.80;;;;;;;25.93;35.65;102477.31;5021756;28;97091;-81
2023/05/31 02:35:09;;;;;;;0.98;0.80;;;;;;;25.93;35.75;102477.31;5023836;28;96808;-81
2023/05/31 02:37:37;;;;;;;0.80;0.77;;;;;;;25.92;35.58;102480.25;5013629;28;96762;-81
2023/05/31 02:40:09;;;;;;;0.90;0.80;;;;;;;25.93;35.60;102484.72;5025668;28;97414;-81
2023/05/31 02:42:40;;;;;;;1.58;0.90;;;;;;;25.92;35.79;102485.75;5017722;28;98349;-81
2023/05/31 02:45:08;;;;;;;1.30;0.88;;;;;;;25.91;35.65;102482.13;5019344;28;99438;-81
2023/05/31 02:47:38;;;;;;;1.10;0.80;;;;;;;25.92;35.54;102475.59;5040126;27;97247;-81
2023/05/31 02:50:09;;;;;;;1.20;0.90;;;;;;;25.92;35.81;102477.50;5027721;28;96814;-82
2023/05/31 02:52:46;;;;;;;1.15;0.95;;;;;;;25.91;35.42;102470.25;5011407;28;96909;-81
2023/05/31 02:55:32;;;;;;;0.80;0.70;;;;;;;25.90;35.65;102474.03;5013600;28;99059;-81
2023/05/31 02:58:22;;;;;;;1.00;0.80;;;;;;;25.88;35.82;102479.72;5028820;28;96719;-81
2023/05/31 03:01:21;;;;;;;1.10;0.90;;;;;;;25.88;35.66;102470.59;4983579;28;97181;-81
2023/05/31 03:04:01;;;;;;;1.08;0.90;;;;;;;25.88;35.37;102476.09;5025381;28;97707;-81
2023/05/31 03:06:33;;;;;;;0.90;0.77;;;;;;;25.88;35.86;102471.47;5026234;28;96785;-81
2023/05/31 03:09:01;;;;;;;1.42;0.90;;;;;;;25.88;35.63;102473.34;5009991;28;96934;-81
2023/05/31 03:11:27;;;;;;;0.82;0.65;;;;;;;25.88;35.27;102476.09;5026164;28;96659;-81
2023/05/31 03:13:55;;;;;;;1.13;0.80;;;;;;;25.88;35.67;102478.84;5042261;28;99610;-81
2023/05/31 03:16:24;;;;;;;1.33;0.90;;;;;;;25.88;35.59;102487.97;5012671;28;97498;-81
2023/05/31 03:18:52;;;;;;;0.85;0.70;;;;;;;25.88;35.45;102487.13;5023127;28;96900;-82
2023/05/31 03:21:19;;;;;;;1.08;0.70;;;;;;;25.88;35.58;102479.72;5025186;28;96591;-81
2023/05/31 03:23:50;;;;;;;1.10;1.00;;;;;;;25.88;35.46;102485.22;4995003;28;99479;-81
2023/05/31 03:26:16;;;;;;;0.80;0.60;;;;;;;25.88;35.43;102476.09;5025190;28;98100;-81
2023/05/31 03:28:43;;;;;;;1.40;0.70;;;;;;;25.87;35.48;102472.50;5007478;28;96986;-81
2023/05/31 03:31:10;;;;;;;1.00;0.90;;;;;;;25.87;35.68;102469.75;5025344;28;96712;-81
2023/05/31 03:33:37;;;;;;;0.70;0.57;;;;;;;25.86;35.74;102470.78;5024080;28;98336;-81
2023/05/31 03:36:04;;;;;;;1.05;0.80;;;;;;;25.87;35.55;102469.75;5024807;28;97153;-81
2023/05/31 03:38:31;;;;;;;1.10;0.80;;;;;;;25.87;35.68;102474.38;5008768;28;97100;-82
2023/05/31 03:40:57;;;;;;;0.70;0.70;;;;;;;25.88;35.65;102468.72;5024826;28;96965;-81
2023/05/31 03:43:24;;;;;;;1.25;1.00;;;;;;;25.86;35.67;102473.53;5023889;28;99599;-82
2023/05/31 03:45:53;;;;;;;1.00;0.70;;;;;;;25.86;35.69;102467.16;5024363;28;98930;-81
2023/05/31 03:48:20;;;;;;;0.80;0.70;;;;;;;25.86;35.65;102467.16;5023748;28;96823;-82
2023/05/31 03:50:47;;;;;;;0.93;0.73;;;;;;;25.86;35.83;102459.75;5024957;28;96859;-81
2023/05/31 03:53:13;;;;;;;1.27;0.70;;;;;;;25.86;35.74;102464.41;5006704;28;98930;-81
2023/05/31 03:55:40;;;;;;;0.85;0.70;;;;;;;25.86;35.77;102470.78;5023558;28;96761;-82
2023/05/31 03:58:07;;;;;;;0.95;0.75;;;;;;;25.85;35.80;102469.06;5024705;28;96704;-81
2023/05/31 04:00:37;;;;;;;0.95;0.75;;;;;;;25.85;35.73;102471.81;5009926;28;96814;-82
2023/05/31 04:03:04;;;;;;;0.68;0.65;;;;;;;25.85;35.72;102469.06;5023973;28;98561;-81
2023/05/31 04:05:33;;;;;;;0.85;0.60;;;;;;;25.86;35.56;102472.66;5021707;28;97092;-81
2023/05/31 04:08:01;;;;;;;1.30;0.82;;;;;;;25.85;35.45;102469.06;5023596;28;97280;-81
2023/05/31 04:10:31;;;;;;;2.05;0.70;;;;;;;25.85;35.49;102469.06;5008653;28;96950;-81
2023/05/31 04:12:58;;;;;;;0.93;0.80;;;;;;;25.86;35.67;102473.53;5006860;28;97486;-81
2023/05/31 04:15:24;;;;;;;0.77;0.77;;;;;;;25.85;35.38;102465.44;5023381;28;99179;-81
2023/05/31 04:17:55;;;;;;;0.80;0.70;;;;;;;25.84;35.68;102466.47;5023061;28;96763;-81
2023/05/31 04:20:22;;;;;;;0.70;0.60;;;;;;;25.85;35.69;102465.44;5007687;28;97359;-81
2023/05/31 04:22:50;;;;;;;1.33;0.75;;;;;;;25.84;35.40;102478.34;5023941;28;99282;-82
2023/05/31 04:25:17;;;;;;;1.13;0.70;;;;;;;25.84;35.75;102470.09;5006954;28;100853;-81
2023/05/31 04:27:44;;;;;;;0.77;0.73;;;;;;;25.84;35.99;102471.97;5006743;28;96790;-81
2023/05/31 04:30:12;;;;;;;0.90;0.80;;;;;;;25.84;35.56;102472.84;5023918;28;97175;-81
2023/05/31 04:32:40;;;;;;;1.00;0.73;;;;;;;25.84;35.50;102472.84;5023503;28;99971;-81
2023/05/31 04:35:08;;;;;;;0.70;0.60;;;;;;;25.83;35.44;102473.88;5023209;28;99859;-81
2023/05/31 04:37:39;;;;;;;0.70;0.68;;;;;;;25.84;35.63;102475.59;5022483;28;97368;-81
2023/05/31 04:40:09;;;;;;;0.77;0.70;;;;;;;25.84;35.73;102475.59;5023172;28;96784;-81
2023/05/31 04:42:37;;;;;;;1.20;0.80;;;;;;;25.82;35.47;102480.41;5022096;28;98756;-81
2023/05/31 04:45:11;;;;;;;0.75;0.60;;;;;;;25.83;35.67;102476.63;5022465;28;97557;-81
2023/05/31 04:47:49;;;;;;;0.93;0.80;;;;;;;25.83;35.66;102481.25;5021125;28;97168;-81
2023/05/31 04:50:17;;;;;;;0.77;0.77;;;;;;;25.83;35.57;102487.63;5022541;28;96807;-81
2023/05/31 04:52:44;;;;;;;0.93;0.75;;;;;;;25.82;35.79;102480.41;5023122;28;96918;-81
2023/05/31 04:55:11;;;;;;;1.35;0.73;;;;;;;25.84;35.79;102482.97;5022813;28;100989;-81
2023/05/31 04:57:38;;;;;;;1.15;0.82;;;;;;;25.83;35.64;102484.88;5022058;28;96739;-82
2023/05/31 05:00:12;;;;;;;1.23;0.88;;;;;;;25.83;35.56;102475.75;5023475;28;96948;-81
2023/05/31 05:02:47;;;;;;;0.80;0.70;;;;;;;25.83;35.84;102468.38;5000801;28;96788;-81
2023/05/31 05:05:15;;;;;;;0.80;0.68;;;;;;;25.83;35.72;102471.13;5027674;28;98177;-82
2023/05/31 05:07:42;;;;;;;1.05;0.90;;;;;;;25.84;35.49;102477.47;5026754;28;97066;-81
2023/05/31 05:10:09;;;;;;;0.70;0.60;;;;;;;25.83;35.54;102482.13;5027048;28;96867;-81
2023/05/31 05:12:36;;;;;;;0.82;0.70;;;;;;;25.84;35.52;102483.84;5009476;28;99339;-81
2023/05/31 05:15:04;;;;;;;0.98;0.70;;;;;;;25.84;35.55;102481.09;5025900;28;99554;-81
2023/05/31 05:17:31;;;;;;;1.15;0.85;;;;;;;25.84;35.48;102483.84;5026494;28;96522;-81
2023/05/31 05:19:58;;;;;;;0.90;0.75;;;;;;;25.83;35.79;102484.88;5025268;28;96967;-81
2023/05/31 05:22:25;;;;;;;1.08;0.70;;;;;;;25.83;35.62;102489.53;5026252;28;100253;-81
2023/05/31 05:24:52;;;;;;;1.15;0.98;;;;;;;25.83;35.68;102486.78;5025802;28;100490;-81
2023/05/31 05:27:21;;;;;;;0.95;0.77;;;;;;;25.84;35.69;102491.25;5025261;28;96639;-81
2023/05/31 05:29:48;;;;;;;0.70;0.70;;;;;;;25.83;35.93;102498.63;5009827;28;96994;-81
2023/05/31 05:32:15;;;;;;;1.15;0.70;;;;;;;25.84;35.62;102499.50;5026257;28;96932;-81
2023/05/31 05:34:42;;;;;;;0.93;0.60;;;;;;;25.83;35.67;102493.13;5018695;28;97033;-81
2023/05/31 05:37:09;;;;;;;0.90;0.70;;;;;;;25.83;36.15;102493.13;5026030;28;96942;-81
2023/05/31 05:39:36;;;;;;;1.13;0.75;;;;;;;25.84;35.84;102497.59;5027452;28;97243;-81
2023/05/31 05:42:03;;;;;;;0.63;0.63;;;;;;;25.84;35.73;102491.25;5026573;28;96902;-81
2023/05/31 05:44:30;;;;;;;0.80;0.63;;;;;;;25.84;35.83;102492.09;5027597;28;96669;-81
2023/05/31 05:46:57;;;;;;;0.68;0.65;;;;;;;25.84;35.64;102492.09;5007402;28;96864;-82
2023/05/31 05:49:24;;;;;;;0.80;0.70;;;;;;;25.84;35.51;102489.34;5009127;28;96905;-81
2023/05/31 05:51:51;;;;;;;1.10;0.77;;;;;;;25.85;35.77;102496.56;5024042;28;100730;-81
2023/05/31 05:54:18;;;;;;;0.70;0.70;;;;;;;25.85;35.69;102498.47;5003382;28;99475;-81
2023/05/31 05:56:44;;;;;;;1.00;0.70;;;;;;;25.84;35.83;102492.09;5033057;28;96946;-81
2023/05/31 05:59:13;;;;;;;1.23;0.80;;;;;;;25.84;35.67;102494.84;5014780;28;96927;-81
2023/05/31 06:01:57;;;;;;;1.02;0.73;;;;;;;25.84;35.80;102500.34;5021037;28;99433;-81
2023/05/31 06:04:24;;;;;;;0.60;0.60;;;;;;;25.85;36.19;102509.47;5021894;28;96909;-81
2023/05/31 06:06:51;;;;;;;1.10;0.70;;;;;;;25.85;35.32;102512.22;5022633;28;96885;-81
2023/05/31 06:09:18;;;;;;;1.05;0.80;;;;;;;25.85;35.83;102507.59;5024572;28;97100;-81
2023/05/31 06:11:44;;;;;;;1.27;0.90;;;;;;;25.86;35.68;102502.94;5022169;28;100377;-81
2023/05/31 06:14:12;;;;;;;0.88;0.80;;;;;;;25.86;35.74;102503.81;5022217;28;98671;-80
2023/05/31 06:16:43;;;;;;;0.82;0.65;;;;;;;25.86;35.89;102495.53;5014178;28;97015;-80
2023/05/31 06:19:11;;;;;;;0.80;0.70;;;;;;;25.86;35.42;102501.06;5019594;28;96863;-80
2023/05/31 06:21:38;;;;;;;1.00;0.77;;;;;;;25.87;35.75;102496.41;5016343;28;99270;-80
2023/05/31 06:24:05;;;;;;;0.82;0.73;;;;;;;25.88;35.65;102499.00;5017107;28;99756;-80
2023/05/31 06:26:35;;;;;;;1.02;0.82;;;;;;;25.87;35.45;102497.28;5018758;28;96866;-80
2023/05/31 06:29:14;;;;;;;0.90;0.70;;;;;;;25.88;35.67;102501.75;5018788;28;97085;-80
2023/05/31 06:32:03;;;;;;;1.10;0.93;;;;;;;25.86;35.84;102498.31;4995785;28;99992;-80
2023/05/31 06:34:35;;;;;;;0.95;0.82;;;;;;;25.89;35.62;102499.84;5018271;28;98953;-80
2023/05/31 06:37:02;;;;;;;1.27;0.80;;;;;;;25.87;35.59;102500.03;5018332;28;96913;-80
2023/05/31 06:39:29;;;;;;;1.13;0.80;;;;;;;25.87;35.71;102500.03;5001777;28;97647;-80
2023/05/31 06:41:59;;;;;;;2.75;0.90;;;;;;;25.88;35.65;102501.75;5002652;28;99024;-80
2023/05/31 06:44:52;;;;;;;;;;;;;;;25.83;35.67;102504.16;5007815;28;97222;-79
2023/05/31 06:47:42;;;;;;;1.20;0.80;;;;;;;25.82;36.00;102502.41;5017101;28;96807;-80
2023/05/31 06:50:21;;;;;;;1.10;0.82;;;;;;;25.85;35.89;102498.47;5018525;28;97488;-80
2023/05/31 06:53:26;;;;;;;0.60;0.60;;;;;;;25.84;35.91;102497.59;4979736;28;1111667;-80
2023/05/31 06:56:01;;;;;;;0.95;0.60;;;;;;;25.86;35.62;102500.19;5022567;28;97172;-80
2023/05/31 06:58:31;;;;;;;0.82;0.80;;;;;;;25.87;35.49;102496.41;5020326;28;96688;-80
2023/05/31 07:00:58;;;;;;;0.88;0.68;;;;;;;25.88;35.75;102503.63;5019857;28;97146;-80
2023/05/31 07:03:25;;;;;;;0.80;0.77;;;;;;;25.88;35.85;102499.00;5019842;28;100497;-80
2023/05/31 07:05:52;;;;;;;0.77;0.60;;;;;;;25.89;35.99;102505.34;5020349;28;97342;-80
2023/05/31 07:08:20;;;;;;;0.80;0.70;;;;;;;25.90;35.73;102496.06;5017023;28;97640;-80
2023/05/31 07:11:16;;;;;;;1.13;0.80;;;;;;;25.89;35.47;102497.09;4965343;28;96727;-80
2023/05/31 07:13:43;;;;;;;1.05;0.90;;;;;;;25.89;35.72;102499.84;5015818;28;99421;-80
2023/05/31 07:16:09;;;;;;;2.00;1.13;;;;;;;25.89;35.54;102492.44;5003027;28;98530;-80
2023/05/31 07:18:36;;;;;;;0.80;0.80;;;;;;;25.90;35.85;102494.19;5024899;28;97647;-80
2023/05/31 07:21:03;;;;;;;0.88;0.80;;;;;;;25.91;35.84;102486.78;5019149;28;96872;-80
2023/05/31 07:23:30;;;;;;;1.00;0.90;;;;;;;25.91;35.87;102487.63;5020497;28;97217;-80
2023/05/31 07:26:01;;;;;;;1.10;0.90;;;;;;;25.92;35.71;102480.25;5020020;28;96770;-80
2023/05/31 07:28:28;;;;;;;2.45;0.80;;;;;;;25.93;35.69;102481.97;5020655;28;96934;-80
2023/05/31 07:30:55;;;;;;;1.23;0.90;;;;;;;25.91;35.70;102484.88;5020151;28;96937;-80
2023/05/31 07:33:21;;;;;;;1.20;0.93;;;;;;;25.93;35.31;102476.47;5020136;28;97876;-80
2023/05/31 07:35:54;;;;;;;1.00;0.90;;;;;;;25.93;35.96;102476.47;5019509;28;97238;-80
2023/05/31 07:38:24;;;;;;;3.33;1.23;;;;;;;25.92;35.65;102478.34;5007530;28;96766;-80
2023/05/31 07:40:51;;;;;;;1.00;0.80;;;;;;;25.93;35.65;102480.06;5018605;28;96998;-80
2023/05/31 07:43:20;;;;;;;0.85;0.80;;;;;;;25.93;35.71;102474.56;5020257;28;98399;-80
2023/05/31 07:45:48;;;;;;;1.30;1.00;;;;;;;25.92;35.72;102475.59;5019940;28;97073;-80
2023/05/31 07:48:14;;;;;;;1.92;1.10;;;;;;;25.92;35.53;102470.09;5019385;28;97098;-80
2023/05/31 07:50:41;;;;;;;1.00;0.90;;;;;;;25.93;35.43;102468.19;5020360;28;96938;-80
2023/05/31 07:53:07;;;;;;;1.30;0.90;;;;;;;25.93;35.86;102469.06;5020393;28;96951;-80
2023/05/31 07:55:35;;;;;;;1.13;1.00;;;;;;;25.94;35.62;102464.41;5020250;28;97011;-79
2023/05/31 07:58:01;;;;;;;1.30;0.80;;;;;;;25.93;36.07;102466.31;5019055;28;96726;-80
2023/05/31 08:00:28;;;;;;;1.00;0.90;;;;;;;25.93;35.63;102468.19;5020085;28;96698;-80
2023/05/31 08:02:58;;;;;;;1.35;0.90;;;;;;;25.93;35.92;102474.56;5017078;28;99465;-80
2023/05/31 08:05:25;;;;;;;1.10;1.00;;;;;;;25.93;35.82;102470.94;5019656;28;97032;-80
2023/05/31 08:07:51;;;;;;;1.30;1.02;;;;;;;25.93;35.62;102459.94;5020764;28;97827;-80
2023/05/31 08:10:18;;;;;;;1.67;1.10;;;;;;;25.92;35.81;102461.84;5018203;28;97035;-80
2023/05/31 08:12:44;;;;;;;2.08;1.13;;;;;;;25.94;35.81;102462.53;5018375;28;97901;-80
2023/05/31 08:15:11;;;;;;;1.10;0.93;;;;;;;25.93;35.98;102469.06;5019343;28;98077;-79
2023/05/31 08:17:38;;;;;;;2.08;1.52;;;;;;;25.94;35.83;102467.16;5020596;28;96714;-79
2023/05/31 08:20:06;;;;;;;1.10;0.95;;;;;;;25.94;36.01;102461.66;5018871;28;96615;-80
2023/05/31 08:22:33;;;;;;;3.15;1.05;;;;;;;25.94;35.87;102461.66;5019701;28;97118;-80
2023/05/31 08:25:00;;;;;;;1.83;1.20;;;;;;;25.94;36.00;102470.78;5020649;28;97335;-80
2023/05/31 08:27:26;;;;;;;1.38;1.27;;;;;;;25.93;35.72;102458.06;5017742;28;96691;-80
2023/05/31 08:29:53;;;;;;;1.00;0.90;;;;;;;25.94;36.03;102459.78;5018305;28;96615;-80
2023/05/31 08:32:20;;;;;;;0.95;0.85;;;;;;;25.94;35.87;102454.25;5017952;28;98709;-80
2023/05/31 08:34:46;;;;;;;1.67;1.20;;;;;;;25.94;35.97;102451.50;5018818;28;96778;-80
2023/05/31 08:37:13;;;;;;;1.63;1.17;;;;;;;25.93;35.95;102449.78;5020316;28;96755;-79
2023/05/31 08:39:40;;;;;;;1.27;1.17;;;;;;;25.95;35.91;102444.13;5021295;28;96943;-80
2023/05/31 08:42:22;;;;;;;2.15;1.10;;;;;;;25.96;35.85;102443.94;5018896;28;99280;-80
2023/05/31 08:44:49;;;;;;;2.70;1.00;;;;;;;25.95;35.40;102435.84;5020603;28;99534;-80
2023/05/31 08:47:26;;;;;;;1.27;1.10;;;;;;;25.95;36.09;102444.97;5019767;28;96759;-80
2023/05/31 08:49:54;;;;;;;1.80;1.20;;;;;;;25.94;35.83;102447.91;5007644;28;96700;-80
2023/05/31 08:52:21;;;;;;;1.48;1.13;;;;;;;25.95;35.86;102444.97;5016382;28;96786;-79
2023/05/31 08:54:48;;;;;;;2.50;1.30;;;;;;;25.94;35.99;102440.50;5016762;28;99106;-80
2023/05/31 08:57:16;;;;;;;1.73;1.30;;;;;;;25.95;35.79;102446.88;5018160;28;97281;-80
2023/05/31 08:59:44;;;;;;;2.05;1.15;;;;;;;25.94;36.10;102443.25;5017962;28;97005;-80
2023/05/31 09:02:12;;;;;;;1.58;1.17;;;;;;;25.96;36.20;102441.19;5017807;28;97715;-80
2023/05/31 09:04:39;;;;;;;1.20;1.10;;;;;;;25.95;35.80;102439.47;4993765;28;97156;-80
2023/05/31 09:07:06;;;;;;;1.25;1.08;;;;;;;25.95;35.85;102433.97;5008696;28;97384;-80
2023/05/31 09:09:33;;;;;;;1.73;1.23;;;;;;;25.96;35.76;102437.56;5011335;28;97062;-80
2023/05/31 09:12:00;;;;;;;1.20;1.10;;;;;;;25.95;36.05;102433.97;5009973;28;96936;-80
2023/05/31 09:14:27;;;;;;;1.40;1.17;;;;;;;25.96;35.71;102434.81;5007942;28;100521;-80
2023/05/31 09:16:54;;;;;;;2.10;1.20;;;;;;;25.96;35.89;102434.81;5008969;28;97021;-80
2023/05/31 09:19:20;;;;;;;1.73;1.15;;;;;;;25.96;36.00;102430.19;5009962;28;98168;-80
2023/05/31 09:21:47;;;;;;;1.30;1.13;;;;;;;25.96;35.89;102427.44;5010103;28;96491;-80
2023/05/31 09:24:15;;;;;;;1.15;1.05;;;;;;;25.97;35.92;102420.03;5010021;28;97217;-80
2023/05/31 09:26:49;;;;;;;1.50;1.10;;;;;;;25.96;36.06;102416.41;5010866;28;96811;-80
2023/05/31 09:29:17;;;;;;;3.28;1.20;;;;;;;25.95;35.89;102417.44;4997638;28;96721;-81
2023/05/31 09:31:45;;;;;;;4.40;1.17;;;;;;;25.94;35.77;102418.47;5009794;28;96889;-80
2023/05/31 09:34:31;;;;;;;1.88;1.25;;;;;;;25.97;36.00;102414.53;5007586;28;97002;-80
2023/05/31 09:36:58;;;;;;;2.15;1.38;;;;;;;25.95;35.85;102416.59;5010291;28;96754;-80
2023/05/31 09:39:25;;;;;;;2.35;1.20;;;;;;;25.95;36.08;102411.06;4986389;28;97357;-80
2023/05/31 09:41:52;;;;;;;1.25;1.10;;;;;;;25.95;35.95;102403.69;5010519;28;96811;-81
2023/05/31 09:44:19;;;;;;;1.60;1.50;;;;;;;25.95;35.97;102411.94;5011498;28;97899;-80
2023/05/31 09:46:46;;;;;;;1.60;1.30;;;;;;;25.95;36.12;102403.69;4994369;28;96820;-80
2023/05/31 09:49:13;;;;;;;2.22;1.38;;;;;;;25.95;35.94;102411.94;5012810;28;96897;-81
2023/05/31 09:51:40;;;;;;;2.47;1.48;;;;;;;25.96;36.03;102412.81;5018483;28;96877;-81
2023/05/31 09:54:11;;;;;;;2.13;1.50;;;;;;;25.96;36.09;102408.16;5016354;28;100807;-81
2023/05/31 09:56:40;;;;;;;4.65;1.90;;;;;;;25.96;35.99;102405.41;5016334;28;97962;-80
2023/05/31 09:59:07;;;;;;;3.40;1.90;;;;;;;25.96;35.94;102412.81;5017055;28;96908;-80
2023/05/31 10:01:35;;;;;;;3.15;2.30;;;;;;;25.95;35.80;102403.69;5016797;28;97885;-81
2023/05/31 10:04:04;;;;;;;4.90;2.00;;;;;;;25.95;35.88;102398.19;5014760;28;96723;-81
2023/05/31 10:06:34;;;;;;;3.08;2.35;;;;;;;25.95;35.75;102395.41;4999223;28;96844;-81
2023/05/31 10:09:07;;;;;;;4.63;2.47;;;;;;;25.95;35.85;102398.19;5012772;28;97190;-81
2023/05/31 10:11:38;;;;;;;4.63;2.80;;;;;;;25.95;35.34;102397.31;5018367;28;97111;-81
2023/05/31 10:14:16;;;;;;;4.95;2.58;;;;;;;25.95;35.24;102397.31;4998109;28;98586;-81
2023/05/31 10:16:48;;;;;;;4.30;3.10;;;;;;;25.95;35.69;102386.31;5029255;28;96811;-80
2023/05/31 10:19:24;;;;;;;4.70;3.33;;;;;;;25.95;35.64;102394.56;5018552;28;96772;-81
2023/05/31 10:21:51;;;;;;;5.05;3.55;;;;;;;25.94;35.53;102390.94;5014754;28;96905;-80
2023/05/31 10:24:24;;;;;;;4.40;2.60;;;;;;;25.95;35.81;102389.91;5015277;28;96944;-80
2023/05/31 10:27:00;;;;;;;5.53;3.00;;;;;;;25.94;35.58;102390.94;5018010;28;95927;-81
2023/05/31 10:29:30;;;;;;;5.50;3.10;;;;;;;25.94;35.67;102379.94;5009331;28;97479;-80
2023/05/31 10:32:05;;;;;;;5.03;3.00;;;;;;;25.95;35.40;102372.53;5029887;27;98265;-80
2023/05/31 10:34:33;;;;;;;5.20;3.00;;;;;;;25.95;35.34;102375.28;5012907;28;96962;-80
2023/05/31 10:37:03;;;;;;;4.47;2.83;;;;;;;25.94;35.53;102374.44;5011111;28;97345;-80
2023/05/31 10:39:54;;;;;;;4.32;2.80;;;;;;;25.95;35.50;102365.13;5011454;28;96937;-80
2023/05/31 10:42:40;;;;;;;3.80;2.97;;;;;;;25.94;35.19;102365.31;5006031;28;97761;-80
2023/05/31 10:45:14;;;;;;;5.78;3.17;;;;;;;25.93;35.38;102369.97;4999157;28;96803;-80
2023/05/31 10:48:13;;;;;;;5.68;3.00;;;;;;;25.95;35.38;102356.88;5013114;28;97210;-80
2023/05/31 10:50:58;;;;;;;5.00;3.15;;;;;;;25.94;35.28;102349.66;5014890;28;96799;-81
2023/05/31 10:53:46;;;;;;;5.63;2.85;;;;;;;25.93;35.34;102347.94;5010567;28;96889;-80
2023/05/31 10:56:14;;;;;;;5.85;3.30;;;;;;;25.93;35.31;102345.19;5011116;28;96847;-79
2023/05/31 10:58:43;;;;;;;4.43;3.17;;;;;;;25.93;35.42;102339.69;5013066;28;97160;-79
2023/05/31 11:01:14;;;;;;;4.75;2.70;;;;;;;25.95;35.08;102336.75;5011948;28;96873;-80
2023/05/31 11:03:49;;;;;;;5.03;3.20;;;;;;;25.95;35.21;102340.38;5012837;28;97158;-81
2023/05/31 11:06:22;;;;;;;5.95;2.75;;;;;;;25.95;34.99;102334.84;5014137;28;97932;-80
2023/05/31 11:09:11;;;;;;;7.75;3.33;;;;;;;25.97;35.04;102349.31;4999838;28;97190;-81
2023/05/31 11:11:40;;;;;;;4.82;2.80;;;;;;;25.96;35.12;102333.81;5021129;28;97339;-81
2023/05/31 11:14:25;;;;;;;5.00;2.72;;;;;;;25.97;35.10;102332.78;5021949;28;96866;-80
2023/05/31 11:16:53;;;;;;;5.65;2.95;;;;;;;25.95;34.87;102326.59;5019104;28;96682;-81
2023/05/31 11:19:26;;;;;;;4.18;2.78;;;;;;;25.96;34.75;102324.72;5015058;28;96884;-81
2023/05/31 11:21:57;;;;;;;7.10;3.10;;;;;;;25.98;34.63;102344.66;5016485;28;96850;-80
2023/05/31 11:24:28;;;;;;;6.25;2.58;;;;;;;25.97;34.47;102321.78;5012886;28;96862;-80
2023/05/31 11:27:00;;;;;;;5.00;2.75;;;;;;;25.97;34.50;102330.03;5011354;28;97360;-80
2023/05/31 11:29:48;;;;;;;6.40;3.15;;;;;;;25.99;34.38;102324.34;5014770;28;97266;-80
2023/05/31 11:32:15;;;;;;;4.20;2.42;;;;;;;25.97;34.56;102323.66;4986023;28;97330;-82
2023/05/31 11:34:48;;;;;;;4.55;2.40;;;;;;;25.98;34.39;102340.00;5013285;28;96781;-80
2023/05/31 11:37:15;;;;;;;5.60;2.47;;;;;;;25.98;34.17;102329.00;5015344;28;97781;-81
2023/05/31 11:39:45;;;;;;;5.50;2.60;;;;;;;25.98;34.16;102322.63;5015252;28;97003;-81